Hundvaag 1 weather for Oct 2000
Month no. 160
Obs.
Da.
Temp. Dew Point Precip. Wind
Speed
Wind gusts Cloud cover Press. Humidity Wind dir. Sunny OPT
01.10.2000 12,0   0,0     10 1010,7     1  
02.10.2000 13,0   0,0     0 1008,9        
03.10.2000 12,0   2,0     0 1012,7     1  
04.10.2000 14,0   1,0     0 1012,9        
05.10.2000 9,0   3,0     2 1013,9     1  
06.10.2000 11,3   12,6     0 1012,9     1  
07.10.2000 10,0   3,0     4 1018,8     1  
08.10.2000 11,7   1,4     0 1012,9        
09.10.2000 10,5   2,1     0 1010,7     1  
10.10.2000 8,0   8,3     6 1004,3     1  
11.10.2000 10,1   0,6     5 996,4     1  
12.10.2000 10,6   0,3     2 999,5     1  
13.10.2000 11,4   3,8     5 1008,1     1  
14.10.2000 9,1   5,1     2 1011,5     1  
15.10.2000 11,0   1,5     2 1014,8        
16.10.2000 12,0   1,8     0 1013,1     1  
17.10.2000 12,7   1,5     0 1008,9        
18.10.2000 8,7   3,6     9 1015,3     1  
19.10.2000 11,9   13,8     0 1014,1        
20.10.2000 7,2   28,1     10 1019,1     1  
21.10.2000 11,9   1,5     0 1016,1        
22.10.2000 8,1   18,1     10 1019,7     1  
23.10.2000 11,5   0,3     1 1015,3     1  
24.10.2000 9,8   6,1     0 1005,1     1  
25.10.2000 8,9   5,3     2 1004,5        
26.10.2000 10,4   14,7     0 999,6        
27.10.2000 8,7   2,1     0 1008,8        
28.10.2000 6,9   3,9     9 1010,4     1  
29.10.2000 8,1   10,9     5 1001,1        
30.10.2000 7,8   8,6     0 986,9        
31.10.2000 8,1   25,2     0 978,8     1  
Avrg/Sum 10,2   190,2     2,7 1008,6     19